« Back
NWS Peachtree City, Ga » Text Product » ATL Terminal Aerodrome Forecast


Printer-friendly Version
Current Version              Previous Versions:   1  2  3  4  5  6  7  8  9  

Terminal Aerodrome Forecast

253
FTUS42 KFFC 201621 AAD
TAFATL
TAF AMD
KATL 201621Z 2016/2118 02005KT 6SM BR SCT006 BKN020 OVC030
      TEMPO 2017/2018 BKN006 OVC015
     FM201800 08005KT P6SM BKN006 OVC015
     FM202100 05004KT P6SM BKN025
     FM210700 05004KT 5SM BR OVC025
     FM211200 06005KT 4SM BR OVC004
     FM211500 08007KT P6SM SCT040=



USA.gov is the U.S. government's official web portal to all federal, state and local government web resources and services.